createdAt,value
2022-11-24T00:00:18.313Z,97740.38
2022-11-24T00:02:20.036Z,97749.09
2022-11-24T00:04:21.798Z,97747.47
2022-11-24T00:06:24.216Z,97751.56
2022-11-24T00:08:25.819Z,97758.06
2022-11-24T00:10:27.365Z,97761.09
2022-11-24T00:12:29.126Z,97751.81
2022-11-24T00:14:34.119Z,97752.94
2022-11-24T00:16:37.474Z,97756.47
2022-11-24T00:18:40.742Z,97760.28
2022-11-24T00:20:42.369Z,97754.84
2022-11-24T00:22:44.016Z,97768.16
2022-11-24T00:24:47.369Z,97761.94
2022-11-24T00:26:49.111Z,97769.81
2022-11-24T00:28:52.720Z,97774.19
2022-11-24T00:30:56.422Z,97774.19
2022-11-24T00:32:59.495Z,97784.78
2022-11-24T00:35:01.143Z,97787.81
2022-11-24T00:37:02.697Z,97792.97
2022-11-24T00:39:11.670Z,97791.31
2022-11-24T00:41:14.010Z,97795.69
2022-11-24T00:43:15.545Z,97796.50
2022-11-24T00:45:17.132Z,97792.69
2022-11-24T00:47:19.298Z,97802.50
2022-11-24T00:49:21.008Z,97800.59
2022-11-24T00:51:26.028Z,97800.31
2022-11-24T00:53:31.721Z,97808.78
2022-11-24T00:55:35.983Z,97807.94
2022-11-24T00:57:37.629Z,97813.13
2022-11-24T00:59:39.305Z,97806.06
2022-11-24T01:01:42.518Z,97822.13
2022-11-24T01:03:46.126Z,97819.38
2022-11-24T01:05:48.013Z,97821.03
2022-11-24T01:07:50.794Z,97823.50
2022-11-24T01:09:52.637Z,97836.06
2022-11-24T01:12:04.053Z,97835.78
2022-11-24T01:14:12.387Z,97838.78
2022-11-24T01:16:23.042Z,97837.69
2022-11-24T01:18:24.640Z,97843.94
2022-11-24T01:20:26.391Z,97845.59
2022-11-24T01:22:28.346Z,97845.59
2022-11-24T01:24:33.421Z,97843.41
2022-11-24T01:26:35.409Z,97853.25
2022-11-24T01:28:40.588Z,97846.69
2022-11-24T01:30:47.215Z,97850.78
2022-11-24T01:32:48.943Z,97848.34
2022-11-24T01:34:53.478Z,97857.06
2022-11-24T01:36:54.945Z,97859.50
2022-11-24T01:39:02.451Z,97864.72
2022-11-24T01:41:19.179Z,97857.34
2022-11-24T01:43:26.399Z,97869.88
2022-11-24T01:45:43.777Z,97866.09
2022-11-24T01:47:45.408Z,97871.00
2022-11-24T01:50:03.012Z,97872.63
2022-11-24T01:52:17.898Z,97875.09
2022-11-24T01:54:30.009Z,97876.72
2022-11-24T01:56:34.737Z,97880.03
2022-11-24T01:58:41.814Z,97883.28
2022-11-24T02:00:45.614Z,97879.47
2022-11-24T02:02:47.317Z,97876.50
2022-11-24T02:04:50.547Z,97881.66
2022-11-24T02:06:53.663Z,97878.09
2022-11-24T02:09:00.745Z,97878.41
2022-11-24T02:11:05.366Z,97880.84
2022-11-24T02:13:06.922Z,97888.78
2022-11-24T02:15:10.015Z,97892.06
2022-11-24T02:17:12.283Z,97888.25
2022-11-24T02:19:21.020Z,97887.97
2022-11-24T02:21:22.700Z,97892.34
2022-11-24T02:23:38.143Z,97893.97
2022-11-24T02:26:06.581Z,97889.34
2022-11-24T02:28:12.569Z,97890.16
2022-11-24T02:30:14.383Z,97892.63
2022-11-24T02:32:18.785Z,97894.25
2022-11-24T02:34:20.479Z,97907.63
2022-11-24T02:36:22.222Z,97904.88
2022-11-24T02:38:35.259Z,97904.63
2022-11-24T02:40:37.413Z,97908.72
2022-11-24T02:42:44.386Z,97906.56
2022-11-24T02:44:51.417Z,97915.56
2022-11-24T02:47:06.424Z,97921.00
2022-11-24T02:49:08.153Z,97914.19
2022-11-24T02:51:09.905Z,97916.09
2022-11-24T02:53:11.500Z,97915.81
2022-11-24T02:55:15.654Z,97919.38
2022-11-24T02:57:17.290Z,97917.19
2022-11-24T02:59:19.373Z,97921.56
2022-11-24T03:01:21.042Z,97925.13
2022-11-24T03:03:23.008Z,97922.13
2022-11-24T03:05:24.659Z,97929.22
2022-11-24T03:07:28.088Z,97931.66
2022-11-24T03:09:30.541Z,97919.94
2022-11-24T03:11:32.496Z,97930.31
2022-11-24T03:13:33.970Z,97931.13
2022-11-24T03:15:41.671Z,97929.47
2022-11-24T03:17:43.474Z,97928.66
2022-11-24T03:19:45.034Z,97934.69
2022-11-24T03:21:50.968Z,97936.31
2022-11-24T03:23:53.171Z,97933.59
2022-11-24T03:25:57.032Z,97934.97
2022-11-24T03:27:58.693Z,97938.22
2022-11-24T03:30:00.527Z,97942.59
2022-11-24T03:32:07.386Z,97947.78
2022-11-24T03:34:09.035Z,97940.69
2022-11-24T03:36:10.634Z,97947.53
2022-11-24T03:38:12.136Z,97950.81
2022-11-24T03:40:13.918Z,97948.63
2022-11-24T03:42:15.749Z,97945.06
2022-11-24T03:44:17.911Z,97948.63
2022-11-24T03:46:19.714Z,97954.38
2022-11-24T03:48:21.482Z,97951.09
2022-11-24T03:50:23.181Z,97948.09
2022-11-24T03:52:28.760Z,97950.53
2022-11-24T03:54:33.366Z,97956.81
2022-11-24T03:56:35.225Z,97947.56
2022-11-24T03:58:40.866Z,97956.28
2022-11-24T04:00:42.347Z,97957.09
2022-11-24T04:02:45.932Z,97956.00
2022-11-24T04:04:50.681Z,97958.72
2022-11-24T04:06:52.396Z,97962.81
2022-11-24T04:08:54.313Z,97969.09
2022-11-24T04:10:55.930Z,97972.13
2022-11-24T04:12:57.619Z,97976.22
2022-11-24T04:14:59.043Z,97971.59
2022-11-24T04:17:00.717Z,97968.56
2022-11-24T04:19:02.335Z,97975.09
2022-11-24T04:21:04.119Z,97970.47
2022-11-24T04:23:06.010Z,97977.59
2022-11-24T04:25:09.578Z,97983.88
2022-11-24T04:27:16.962Z,97985.47
2022-11-24T04:29:18.468Z,97990.41
2022-11-24T04:31:20.130Z,97987.66
2022-11-24T04:33:21.819Z,97989.31
2022-11-24T04:35:23.493Z,97989.56
2022-11-24T04:37:25.188Z,98008.41
2022-11-24T04:39:28.598Z,97996.69
2022-11-24T04:41:30.386Z,98003.75
2022-11-24T04:43:36.364Z,98005.69
2022-11-24T04:45:40.697Z,98010.84
2022-11-24T04:47:42.220Z,98014.13
2022-11-24T04:49:43.916Z,98005.13
2022-11-24T04:51:45.669Z,98009.50
2022-11-24T04:53:48.974Z,98012.22
2022-11-24T04:55:50.564Z,98016.06
2022-11-24T04:57:52.055Z,98015.25
2022-11-24T04:59:55.833Z,98021.50
2022-11-24T05:01:59.624Z,98030.25
2022-11-24T05:04:01.265Z,98033.78
2022-11-24T05:06:03.295Z,98025.34
2022-11-24T05:08:05.196Z,98027.81
2022-11-24T05:10:27.611Z,98037.88
2022-11-24T05:12:31.304Z,98032.44
2022-11-24T05:14:33.043Z,98035.16
2022-11-24T05:16:34.749Z,98040.09
2022-11-24T05:18:37.857Z,98045.00
2022-11-24T05:20:39.610Z,98052.13
2022-11-24T05:22:41.223Z,98045.56
2022-11-24T05:24:45.944Z,98053.75
2022-11-24T05:26:47.491Z,98051.31
2022-11-24T05:28:50.332Z,98047.75
2022-11-24T05:30:51.935Z,98048.59
2022-11-24T05:32:53.597Z,98050.19
2022-11-24T05:34:55.209Z,98051.84
2022-11-24T05:37:02.887Z,98056.50
2022-11-24T05:39:08.773Z,98057.31
2022-11-24T05:41:10.358Z,98060.88
2022-11-24T05:43:13.424Z,98058.97
2022-11-24T05:45:21.503Z,98062.25
2022-11-24T05:47:23.953Z,98056.78
2022-11-24T05:49:25.935Z,98058.41
2022-11-24T05:51:27.771Z,98055.97
2022-11-24T05:53:29.295Z,98060.59
2022-11-24T05:55:31.590Z,98060.34
2022-11-24T05:57:37.481Z,98063.88
2022-11-24T05:59:41.948Z,98063.06
2022-11-24T06:01:46.464Z,98063.06
2022-11-24T06:03:52.636Z,98066.03
2022-11-24T06:05:54.366Z,98070.44
2022-11-24T06:07:56.322Z,98077.78
2022-11-24T06:09:58.075Z,98079.44
2022-11-24T06:12:00.857Z,98078.34
2022-11-24T06:14:11.372Z,98072.31
2022-11-24T06:16:13.935Z,98072.88
2022-11-24T06:18:17.938Z,98075.59
2022-11-24T06:20:19.914Z,98080.22
2022-11-24T06:22:21.626Z,98074.50
2022-11-24T06:24:25.641Z,98069.59
2022-11-24T06:26:30.677Z,98078.06
2022-11-24T06:28:32.449Z,98075.88
2022-11-24T06:30:34.422Z,98077.22
2022-11-24T06:32:35.948Z,98079.94
2022-11-24T06:34:37.656Z,98086.25
2022-11-24T06:36:39.725Z,98085.13
2022-11-24T06:38:41.425Z,98089.22
2022-11-24T06:40:43.057Z,98091.41
2022-11-24T06:42:55.382Z,98093.59
2022-11-24T06:44:57.067Z,98100.69
2022-11-24T06:46:58.670Z,98102.03
2022-11-24T06:49:00.892Z,98102.59
2022-11-24T06:51:06.201Z,98099.59
2022-11-24T06:53:07.959Z,98112.16
2022-11-24T06:55:09.810Z,98102.03
2022-11-24T06:57:11.622Z,98110.50
2022-11-24T06:59:19.172Z,98110.22
2022-11-24T07:01:26.234Z,98119.22
2022-11-24T07:03:28.218Z,98111.03
2022-11-24T07:05:30.106Z,98121.97
2022-11-24T07:07:31.770Z,98121.13
2022-11-24T07:09:33.556Z,98121.97
2022-11-24T07:11:35.794Z,98128.25
2022-11-24T07:13:37.359Z,98131.78
2022-11-24T07:15:39.608Z,98127.16
2022-11-24T07:17:41.949Z,98126.34
2022-11-24T07:19:43.578Z,98131.78
2022-11-24T07:21:45.399Z,98129.91
2022-11-24T07:23:51.263Z,98134.00
2022-11-24T07:25:53.137Z,98134.00
2022-11-24T07:27:58.827Z,98128.25
2022-11-24T07:30:00.316Z,98136.44
2022-11-24T07:32:05.451Z,98136.44
2022-11-24T07:34:07.496Z,98142.47
2022-11-24T07:36:09.583Z,98145.47
2022-11-24T07:38:13.654Z,98149.03
2022-11-24T07:40:16.238Z,98158.00
2022-11-24T07:42:17.962Z,98165.13
2022-11-24T07:44:19.679Z,98161.31
2022-11-24T07:46:21.451Z,98156.94
2022-11-24T07:48:23.228Z,98152.84
2022-11-24T07:50:24.987Z,98155.56
2022-11-24T07:52:26.898Z,98160.75
2022-11-24T07:54:28.721Z,98156.94
2022-11-24T07:56:30.413Z,98161.88
2022-11-24T07:58:34.738Z,98163.50
2022-11-24T08:00:37.663Z,98164.09
2022-11-24T08:02:39.320Z,98156.44
2022-11-24T08:04:40.827Z,98164.34
2022-11-24T08:06:47.185Z,98156.47
2022-11-24T08:08:49.141Z,98161.13
2022-11-24T08:10:51.574Z,98169.84
2022-11-24T08:12:53.151Z,98164.44
2022-11-24T08:14:54.877Z,98176.50
2022-11-24T08:16:58.146Z,98172.13
2022-11-24T08:18:59.766Z,98172.13
2022-11-24T08:21:01.871Z,98175.16
2022-11-24T08:23:04.042Z,98172.16
2022-11-24T08:25:07.835Z,98170.53
2022-11-24T08:27:09.619Z,98163.44
2022-11-24T08:29:11.232Z,98164.81
2022-11-24T08:31:15.908Z,98161.25
2022-11-24T08:33:17.496Z,98162.38
2022-11-24T08:35:19.183Z,98165.38
2022-11-24T08:37:25.963Z,98163.75
2022-11-24T08:39:27.563Z,98164.03
2022-11-24T08:41:31.998Z,98167.88
2022-11-24T08:43:33.991Z,98158.31
2022-11-24T08:45:41.161Z,98161.59
2022-11-24T08:47:43.334Z,98160.47
2022-11-24T08:49:45.239Z,98163.50
2022-11-24T08:51:48.636Z,98157.22
2022-11-24T08:53:57.200Z,98162.69
2022-11-24T08:56:00.106Z,98157.22
2022-11-24T08:58:02.140Z,98165.69
2022-11-24T09:00:05.305Z,98165.69
2022-11-24T09:02:11.564Z,98156.94
2022-11-24T09:04:13.066Z,98157.19
2022-11-24T09:06:15.707Z,98169.78
2022-11-24T09:08:17.742Z,98168.41
2022-11-24T09:10:19.627Z,98174.44
2022-11-24T09:12:21.731Z,98182.63
2022-11-24T09:14:23.373Z,98186.72
2022-11-24T09:16:27.715Z,98189.75
2022-11-24T09:18:30.634Z,98194.09
2022-11-24T09:20:33.820Z,98201.50
2022-11-24T09:22:35.676Z,98201.25
2022-11-24T09:24:37.389Z,98204.53
2022-11-24T09:26:44.605Z,98204.28
2022-11-24T09:28:50.057Z,98210.53
2022-11-24T09:30:51.861Z,98213.03
2022-11-24T09:32:55.902Z,98216.84
2022-11-24T09:34:57.686Z,98216.59
2022-11-24T09:37:02.013Z,98218.50
2022-11-24T09:39:04.864Z,98214.66
2022-11-24T09:41:15.557Z,98220.13
2022-11-24T09:43:41.212Z,98217.66
2022-11-24T09:46:08.753Z,98222.06
2022-11-24T09:48:29.275Z,98215.47
2022-11-24T09:50:35.900Z,98214.09
2022-11-24T09:52:44.954Z,98218.50
2022-11-24T09:55:19.697Z,98221.22
2022-11-24T09:57:25.881Z,98220.13
2022-11-24T09:59:28.392Z,98225.59
2022-11-24T10:01:33.903Z,98219.31
2022-11-24T10:03:40.552Z,98214.09
2022-11-24T10:05:43.113Z,98211.13
2022-11-24T10:08:08.107Z,98211.91
2022-11-24T10:10:22.900Z,98215.47
2022-11-24T10:12:33.690Z,98219.84
2022-11-24T10:14:49.769Z,98217.38
2022-11-24T10:17:05.245Z,98225.34
2022-11-24T10:19:18.725Z,98219.56
2022-11-24T10:21:29.423Z,98225.59
2022-11-24T10:23:54.802Z,98240.09
2022-11-24T10:26:11.806Z,98231.88
2022-11-24T10:28:15.628Z,98234.38
2022-11-24T10:30:20.914Z,98228.91
2022-11-24T10:32:33.774Z,98226.41
2022-11-24T10:34:43.019Z,98230.28
2022-11-24T10:36:54.771Z,98233.25
2022-11-24T10:39:06.325Z,98234.91
2022-11-24T10:41:15.135Z,98233.25
2022-11-24T10:43:16.959Z,98235.75
2022-11-24T10:45:24.382Z,98233.25
2022-11-24T10:47:28.342Z,98228.31
2022-11-24T10:49:33.945Z,98233.25
2022-11-24T10:51:52.717Z,98236.28
2022-11-24T10:54:01.357Z,98232.44
2022-11-24T10:56:05.708Z,98237.66
2022-11-24T10:58:17.159Z,98234.91
2022-11-24T11:00:18.954Z,98237.38
2022-11-24T11:02:34.369Z,98234.09
2022-11-24T11:04:36.268Z,98238.47
2022-11-24T11:06:38.124Z,98239.84
2022-11-24T11:08:40.581Z,98239.28
2022-11-24T11:10:44.185Z,98243.66
2022-11-24T11:12:46.070Z,98243.13
2022-11-24T11:14:48.578Z,98242.84
2022-11-24T11:16:55.719Z,98242.00
2022-11-24T11:18:57.653Z,98250.22
2022-11-24T11:21:04.846Z,98246.41
2022-11-24T11:23:38.896Z,98243.94
2022-11-24T11:25:41.248Z,98249.97
2022-11-24T11:27:43.126Z,98248.59
2022-11-24T11:34:51.879Z,98249.13
2022-11-24T11:36:59.794Z,98248.84
2022-11-24T11:39:03.782Z,98244.75
2022-11-24T11:41:08.485Z,98247.47
2022-11-24T11:43:42.646Z,98250.78
2022-11-24T11:45:46.707Z,98248.84
2022-11-24T11:47:58.030Z,98245.56
2022-11-24T11:49:59.990Z,98247.47
2022-11-24T11:52:34.838Z,98249.13
2022-11-24T11:55:08.487Z,98253.50
2022-11-24T11:57:34.393Z,98248.03
2022-11-24T11:59:39.335Z,98249.09
2022-11-24T12:02:05.719Z,98253.19
2022-11-24T12:04:19.729Z,98253.19
2022-11-24T12:06:28.848Z,98255.63
2022-11-24T12:09:19.762Z,98259.16
2022-11-24T12:11:40.589Z,98258.91
2022-11-24T12:13:53.044Z,98254.75
2022-11-24T12:16:05.787Z,98245.16
2022-11-24T12:18:58.795Z,98256.66
2022-11-24T12:21:26.653Z,98250.63
2022-11-24T12:23:57.857Z,98249.22
2022-11-24T12:26:07.241Z,98259.03
2022-11-24T12:28:26.562Z,98265.84
2022-11-24T12:31:15.754Z,98272.13
2022-11-24T12:34:00.925Z,98273.44
2022-11-24T12:36:09.440Z,98269.06
2022-11-24T12:39:02.492Z,98271.19
2022-11-24T12:41:41.245Z,98280.75
2022-11-24T12:43:51.958Z,98275.22
2022-11-24T12:46:05.416Z,98281.50
2022-11-24T12:48:15.433Z,98281.75
2022-11-24T12:50:24.052Z,98288.59
2022-11-24T12:52:39.518Z,98289.44
2022-11-24T12:54:41.967Z,98294.63
2022-11-24T12:56:52.767Z,98289.97
2022-11-24T12:59:33.865Z,98295.19
2022-11-24T13:01:58.834Z,98298.22
2022-11-24T13:04:15.603Z,98302.63
2022-11-24T13:06:27.109Z,98305.38
2022-11-24T13:08:29.783Z,98304.84
2022-11-24T13:10:54.752Z,98310.63
2022-11-24T13:13:04.528Z,98308.44
2022-11-24T13:15:43.580Z,98312.25
2022-11-24T13:17:59.478Z,98307.91
2022-11-24T13:20:19.101Z,98312.84
2022-11-24T13:22:31.071Z,98316.69
2022-11-24T13:24:36.948Z,98313.13
2022-11-24T13:26:41.677Z,98318.06
2022-11-24T13:29:13.368Z,98322.50
2022-11-24T13:31:22.844Z,98312.31
2022-11-24T13:33:30.588Z,98321.94
2022-11-24T13:35:32.157Z,98321.41
2022-11-24T13:37:35.069Z,98327.19
2022-11-24T13:40:13.313Z,98327.19
2022-11-24T13:42:43.366Z,98334.59
2022-11-24T13:45:06.931Z,98337.91
2022-11-24T13:47:33.113Z,98341.47
2022-11-24T13:49:39.487Z,98335.16
2022-11-24T13:51:41.268Z,98343.66
2022-11-24T13:53:49.376Z,98345.03
2022-11-24T13:56:00.299Z,98350.25
2022-11-24T13:58:26.233Z,98350.81
2022-11-24T14:00:33.929Z,98346.44
2022-11-24T14:02:35.669Z,98346.69
2022-11-24T14:04:39.501Z,98350.81
2022-11-24T14:06:53.229Z,98348.63
2022-11-24T14:08:59.701Z,98351.66
2022-11-24T14:11:02.985Z,98353.88
2022-11-24T14:13:22.804Z,98360.97
2022-11-24T14:15:28.401Z,98358.53
2022-11-24T14:17:29.910Z,98369.22
2022-11-24T14:19:34.313Z,98366.22
2022-11-24T14:21:41.843Z,98373.63
2022-11-24T14:23:45.378Z,98371.44
2022-11-24T14:25:51.888Z,98371.19
2022-11-24T14:27:56.784Z,98368.69
2022-11-24T14:30:08.029Z,98359.13
2022-11-24T14:32:16.521Z,98375.84
2022-11-24T14:34:23.691Z,98372.81
2022-11-24T14:36:25.251Z,98378.59
2022-11-24T14:38:27.193Z,98377.75
2022-11-24T14:41:13.356Z,98378.59
2022-11-24T14:43:26.015Z,98392.56
2022-11-24T14:45:27.629Z,98402.72
2022-11-24T14:47:45.073Z,98397.78
2022-11-24T14:49:47.046Z,98399.97
2022-11-24T14:51:56.398Z,98397.22
2022-11-24T14:54:01.417Z,98399.16
2022-11-24T14:56:21.195Z,98398.59
2022-11-24T14:58:32.335Z,98401.88
2022-11-24T15:00:34.031Z,98408.97
2022-11-24T15:02:49.995Z,98409.28
2022-11-24T15:05:03.615Z,98413.91
2022-11-24T15:07:29.333Z,98415.03
2022-11-24T15:09:48.568Z,98415.56
2022-11-24T15:11:50.329Z,98417.78
2022-11-24T15:13:54.788Z,98414.47
2022-11-24T15:16:02.925Z,98413.91
2022-11-24T15:18:06.752Z,98413.38
2022-11-24T15:20:17.271Z,98419.94
2022-11-24T15:22:39.957Z,98424.31
2022-11-24T15:24:54.584Z,98419.94
2022-11-24T15:27:01.164Z,98425.97
2022-11-24T15:29:03.293Z,98421.03
2022-11-24T15:31:13.572Z,98429.25
2022-11-24T15:33:18.389Z,98433.06
2022-11-24T15:35:22.804Z,98438.28
2022-11-24T15:37:32.816Z,98437.97
2022-11-24T15:39:35.702Z,98434.94
2022-11-24T15:41:37.355Z,98437.97
2022-11-24T15:43:40.781Z,98438.50
2022-11-24T15:45:42.437Z,98436.31
2022-11-24T15:47:44.365Z,98441.22
2022-11-24T15:49:45.985Z,98448.03
2022-11-24T15:51:48.486Z,98452.13
2022-11-24T15:53:57.116Z,98448.84
2022-11-24T15:56:05.787Z,98452.13
2022-11-24T15:58:11.344Z,98460.84
2022-11-24T16:00:17.997Z,98446.06
2022-11-24T16:02:21.896Z,98448.50
2022-11-24T16:04:23.675Z,98461.66
2022-11-24T16:06:25.680Z,98459.72
2022-11-24T16:08:27.488Z,98466.28
2022-11-24T16:10:38.254Z,98470.63
2022-11-24T16:12:40.124Z,98470.63
2022-11-24T16:14:41.738Z,98479.91
2022-11-24T16:16:43.671Z,98476.88
2022-11-24T16:18:45.433Z,98477.66
2022-11-24T16:20:47.013Z,98483.41
2022-11-24T16:22:48.792Z,98483.09
2022-11-24T16:24:50.334Z,98486.41
2022-11-24T16:26:54.666Z,98495.94
2022-11-24T16:28:56.189Z,98493.75
2022-11-24T16:30:57.992Z,98489.63
2022-11-24T16:33:02.594Z,98497.28
2022-11-24T16:35:05.913Z,98499.69
2022-11-24T16:37:07.540Z,98501.88
2022-11-24T16:39:09.144Z,98493.13
2022-11-24T16:41:10.995Z,98504.31
2022-11-24T16:43:12.565Z,98490.91
2022-11-24T16:45:14.242Z,98499.34
2022-11-24T16:47:16.647Z,98497.72
2022-11-24T16:49:18.546Z,98499.91
2022-11-24T16:51:21.839Z,98496.59
2022-11-24T16:53:23.498Z,98500.16
2022-11-24T16:55:25.296Z,98500.44
2022-11-24T16:57:27.195Z,98509.69
2022-11-24T16:59:29.095Z,98506.13
2022-11-24T17:01:33.376Z,98506.41
2022-11-24T17:03:38.306Z,98505.59
2022-11-24T17:05:39.984Z,98507.50
2022-11-24T17:07:41.843Z,98509.44
2022-11-24T17:09:43.465Z,98505.88
2022-11-24T17:11:45.472Z,98509.16
2022-11-24T17:13:50.537Z,98514.06
2022-11-24T17:15:54.357Z,98511.56
2022-11-24T17:18:22.977Z,98507.75
2022-11-24T17:20:18.166Z,98517.03
2022-11-24T17:22:22.596Z,98513.22
2022-11-24T17:24:24.238Z,98512.41
2022-11-24T17:26:26.919Z,98509.44
2022-11-24T17:28:28.874Z,98512.41
2022-11-24T17:30:30.374Z,98520.59
2022-11-24T17:32:32.275Z,98516.25
2022-11-24T17:34:34.292Z,98522.78
2022-11-24T17:36:36.046Z,98515.41
2022-11-24T17:38:37.834Z,98519.22
2022-11-24T17:40:39.383Z,98527.69
2022-11-24T17:42:41.155Z,98534.22
2022-11-24T17:44:42.927Z,98535.31
2022-11-24T17:46:45.092Z,98525.75
2022-11-24T17:48:47.064Z,98533.34
2022-11-24T17:50:49.274Z,98529.81
2022-11-24T17:52:50.829Z,98535.53
2022-11-24T17:54:52.559Z,98534.97
2022-11-24T17:56:54.333Z,98535.25
2022-11-24T17:58:58.472Z,98537.38
2022-11-24T18:01:00.961Z,98534.09
2022-11-24T18:03:05.464Z,98547.19
2022-11-24T18:05:07.512Z,98544.75
2022-11-24T18:07:09.201Z,98537.31
2022-11-24T18:09:10.752Z,98546.59
2022-11-24T18:11:15.533Z,98551.75
2022-11-24T18:13:34.232Z,98541.34
2022-11-24T18:15:38.953Z,98546.50
2022-11-24T18:17:40.505Z,98544.28
2022-11-24T18:19:42.096Z,98543.16
2022-11-24T18:21:45.874Z,98549.13
2022-11-24T18:23:47.507Z,98551.28
2022-11-24T18:25:57.202Z,98552.03
2022-11-24T18:27:59.110Z,98549.00
2022-11-24T18:30:00.830Z,98561.00
2022-11-24T18:32:02.803Z,98558.78
2022-11-24T18:34:05.945Z,98553.03
2022-11-24T18:36:08.307Z,98556.25
2022-11-24T18:38:10.403Z,98558.44
2022-11-24T18:40:12.191Z,98562.72
2022-11-24T18:42:20.444Z,98561.34
2022-11-24T18:44:22.376Z,98564.56
2022-11-24T18:46:24.132Z,98573.88
2022-11-24T18:48:28.412Z,98568.09
2022-11-24T18:50:31.009Z,98567.78
2022-11-24T18:52:32.641Z,98562.56
2022-11-24T18:54:37.610Z,98567.47
2022-11-24T18:56:39.350Z,98571.53
2022-11-24T18:58:42.028Z,98563.84
2022-11-24T19:00:44.414Z,98576.66
2022-11-24T19:02:56.814Z,98575.25
2022-11-24T19:04:58.590Z,98576.59
2022-11-24T19:07:00.153Z,98579.59
2022-11-24T19:09:11.675Z,98572.47
2022-11-24T19:11:32.349Z,98575.72
2022-11-24T19:13:34.058Z,98586.03
2022-11-24T19:15:36.144Z,98580.84
2022-11-24T19:17:38.003Z,98577.56
2022-11-24T19:19:41.528Z,98575.91
2022-11-24T19:21:43.274Z,98576.16
2022-11-24T19:23:47.017Z,98579.38
2022-11-24T19:25:51.486Z,98574.19
2022-11-24T19:27:53.044Z,98572.22
2022-11-24T19:29:54.972Z,98574.13
2022-11-24T19:31:56.532Z,98579.81
2022-11-24T19:33:59.594Z,98583.63
2022-11-24T19:36:11.048Z,98587.94
2022-11-24T19:38:15.188Z,98586.31
2022-11-24T19:40:17.081Z,98581.91
2022-11-24T19:42:18.968Z,98585.97
2022-11-24T19:44:20.752Z,98581.56
2022-11-24T19:46:27.406Z,98582.69
2022-11-24T19:48:40.711Z,98587.56
2022-11-24T19:50:42.558Z,98585.63
2022-11-24T19:52:44.235Z,98590.50
2022-11-24T19:54:46.480Z,98588.88
2022-11-24T19:56:53.207Z,98592.94
2022-11-24T19:58:58.729Z,98592.09
2022-11-24T20:01:13.333Z,98601.84
2022-11-24T20:03:15.106Z,98598.56
2022-11-24T20:05:16.872Z,98600.72
2022-11-24T20:07:20.426Z,98597.41
2022-11-24T20:09:22.295Z,98596.25
2022-11-24T20:11:25.961Z,98598.41
2022-11-24T20:13:27.639Z,98598.66
2022-11-24T20:15:29.453Z,98592.88
2022-11-24T20:17:32.821Z,98604.88
2022-11-24T20:19:35.972Z,98596.34
2022-11-24T20:21:39.122Z,98602.56
2022-11-24T20:23:42.100Z,98592.97
2022-11-24T20:25:43.806Z,98602.69
2022-11-24T20:27:45.391Z,98594.22
2022-11-24T20:29:47.195Z,98598.25
2022-11-24T20:31:52.031Z,98601.47
2022-11-24T20:33:53.912Z,98603.03
2022-11-24T20:36:00.877Z,98599.72
2022-11-24T20:38:02.505Z,98606.75
2022-11-24T20:40:04.673Z,98604.50
2022-11-24T20:42:07.335Z,98607.97
2022-11-24T20:44:13.628Z,98598.63
2022-11-24T20:46:18.450Z,98592.84
2022-11-24T20:48:19.990Z,98600.69
2022-11-24T20:50:21.824Z,98598.44
2022-11-24T20:52:23.564Z,98598.13
2022-11-24T20:54:25.426Z,98605.94
2022-11-24T20:56:38.212Z,98602.91
2022-11-24T20:58:40.884Z,98592.50
2022-11-24T21:00:42.638Z,98604.13
2022-11-24T21:02:44.404Z,98602.94
2022-11-24T21:04:46.128Z,98608.06
2022-11-24T21:06:48.158Z,98605.00
2022-11-24T21:08:50.865Z,98605.47
2022-11-24T21:10:57.377Z,98603.22
2022-11-24T21:12:58.971Z,98614.63
2022-11-24T21:15:00.522Z,98610.72
2022-11-24T21:17:02.400Z,98606.84
2022-11-24T21:19:08.596Z,98617.38
2022-11-24T21:21:10.692Z,98625.22
2022-11-24T21:23:13.594Z,98621.09
2022-11-24T21:25:24.359Z,98616.34
2022-11-24T21:27:27.118Z,98614.13
2022-11-24T21:29:28.649Z,98617.31
2022-11-24T21:31:30.446Z,98613.41
2022-11-24T21:33:32.562Z,98622.09
2022-11-24T21:35:37.529Z,98622.31
2022-11-24T21:37:39.484Z,98619.25
2022-11-24T21:39:46.011Z,98623.50
2022-11-24T21:41:48.100Z,98623.97
2022-11-24T21:43:50.249Z,98627.44
2022-11-24T21:45:52.372Z,98627.91
2022-11-24T21:47:54.143Z,98617.50
2022-11-24T21:49:55.693Z,98622.59
2022-11-24T21:51:57.609Z,98632.28
2022-11-24T21:54:01.043Z,98626.25
2022-11-24T21:56:06.296Z,98618.56
2022-11-24T21:58:08.154Z,98619.06
2022-11-24T22:00:10.112Z,98614.13
2022-11-24T22:02:13.430Z,98619.19
2022-11-24T22:04:15.292Z,98622.97
2022-11-24T22:06:19.192Z,98614.22
2022-11-24T22:08:21.658Z,98614.72
2022-11-24T22:10:23.178Z,98615.78
2022-11-24T22:12:25.042Z,98614.34
2022-11-24T22:14:27.300Z,98617.78
2022-11-24T22:16:29.177Z,98610.09
2022-11-24T22:18:35.237Z,98614.13
2022-11-24T22:20:39.572Z,98615.41
2022-11-24T22:22:41.286Z,98609.16
2022-11-24T22:24:43.922Z,98612.34
2022-11-24T22:26:45.440Z,98614.72
2022-11-24T22:28:47.671Z,98622.28
2022-11-24T22:30:49.325Z,98628.19
2022-11-24T22:32:50.943Z,98635.50
2022-11-24T22:34:52.491Z,98630.53
2022-11-24T22:36:54.018Z,98623.91
2022-11-24T22:39:03.711Z,98621.66
2022-11-24T22:41:17.373Z,98610.66
2022-11-24T22:43:22.948Z,98620.94
2022-11-24T22:45:25.013Z,98621.38
2022-11-24T22:47:26.620Z,98620.22
2022-11-24T22:49:29.451Z,98616.88
2022-11-24T22:51:33.654Z,98620.31
2022-11-24T22:53:35.379Z,98628.69
2022-11-24T22:55:37.051Z,98622.91
2022-11-24T22:57:38.620Z,98619.59
2022-11-24T22:59:40.219Z,98614.63
2022-11-24T23:01:41.804Z,98618.63
2022-11-24T23:03:43.787Z,98622.63
2022-11-24T23:05:45.494Z,98616.38
2022-11-24T23:07:50.230Z,98616.88
2022-11-24T23:09:51.850Z,98615.66
2022-11-24T23:11:53.385Z,98613.19
2022-11-24T23:13:57.113Z,98614.47
2022-11-24T23:16:04.167Z,98620.38
2022-11-24T23:18:05.684Z,98616.81
2022-11-24T23:20:07.793Z,98614.56
2022-11-24T23:22:09.466Z,98621.06
2022-11-24T23:24:14.194Z,98618.81
2022-11-24T23:26:21.565Z,98627.16
2022-11-24T23:28:23.142Z,98619.72
2022-11-24T23:30:24.932Z,98623.50
2022-11-24T23:32:26.401Z,98623.13
2022-11-24T23:34:28.054Z,98620.88
2022-11-24T23:36:30.825Z,98626.53
2022-11-24T23:38:32.859Z,98618.59
2022-11-24T23:40:34.528Z,98622.59
2022-11-24T23:42:36.104Z,98622.00
2022-11-24T23:44:37.933Z,98622.47
2022-11-24T23:46:39.595Z,98633.56
2022-11-24T23:48:41.403Z,98630.47
2022-11-24T23:50:43.078Z,98628.00
2022-11-24T23:52:44.721Z,98627.16
2022-11-24T23:54:46.221Z,98623.84
2022-11-24T23:56:48.055Z,98620.56
2022-11-24T23:58:50.131Z,98617.25
